If you wish to contribute or participate in the discussions about articles you are invited to join SKYbrary as a registered user

 Actions

Genoa/Cristoforo Colombo Airport

From SKYbrary Wiki

LIMJ
Airport
ICAO: LIMJ – IATA: GOA
Summary
Name Genoa/Cristoforo Colombo Airport
Region Europe
Territory Italy IT.gif
Location Sestri Ponente, Genoa, Liguria
Serving Genoa
Elevation 3.962 m
13 ft
13 ft3.962 m
Coordinates 44° 24' 43.03" N, 8° 50' 46.80" E
Runways
Designator Length Width Surface ROPS
11/29 2915 m9,563.648 ft
45 m147.638 ft
ASP no/no


METAR
Observation LIMJ 190820Z 24005KT 200V260 9999 FEW023 BKN048 OVC070 15/11 Q1004 REDZ
Station Genova / Sestri
Date/Time 19 May 2019 08:20:00
Wind direction 240°
Wind speed 05 kts
Lowest cloud amount few clouds
Temperature 15°C
Dew point 11°C
Humidity 77%
QNH 1004 hPa
Weather condition n/a

RE
Tag(s) Aquaplaning
WX
Tag(s) Low Level Turbulence

International airport serving Italian port of Genova.

Climatology

Dry-summer subtropical ”Mediterranean" climate (Köppen climate classification Csa) - characterized by hot, dry summers and mild winters. During the summer, subtropical high pressure cells dominate, making rainfall unlikely except for the occasional thunderstorm. In the winter, periodic storms bring rain (snow at higher elevations).

Maps

Terrain

Loading map...

Airport Layout

Loading map...


Accidents & Serious Incidents at or in vicinity of LIMJ

None on SKYbrary